sensor_id;sensor_type;location;lat;lon;timestamp;temperature;humidity
30206;DHT22;17010;51.306;3.150;2023-06-10T00:00:45;21.40;99.90
30206;DHT22;17010;51.306;3.150;2023-06-10T00:03:12;21.40;99.90
30206;DHT22;17010;51.306;3.150;2023-06-10T00:05:38;21.40;99.90
30206;DHT22;17010;51.306;3.150;2023-06-10T00:08:05;21.40;99.90
30206;DHT22;17010;51.306;3.150;2023-06-10T00:10:36;21.40;99.90
30206;DHT22;17010;51.306;3.150;2023-06-10T00:13:04;21.40;99.90
30206;DHT22;17010;51.306;3.150;2023-06-10T00:15:31;21.30;99.90
30206;DHT22;17010;51.306;3.150;2023-06-10T00:17:57;21.30;99.90
30206;DHT22;17010;51.306;3.150;2023-06-10T00:20:23;21.30;99.90
30206;DHT22;17010;51.306;3.150;2023-06-10T00:22:50;21.20;99.90
30206;DHT22;17010;51.306;3.150;2023-06-10T00:25:18;21.20;99.90
30206;DHT22;17010;51.306;3.150;2023-06-10T00:27:45;21.10;99.90
30206;DHT22;17010;51.306;3.150;2023-06-10T00:30:11;21.10;99.90
30206;DHT22;17010;51.306;3.150;2023-06-10T00:32:37;21.10;99.90
30206;DHT22;17010;51.306;3.150;2023-06-10T00:35:04;21.00;99.90
30206;DHT22;17010;51.306;3.150;2023-06-10T00:37:31;21.00;99.90
30206;DHT22;17010;51.306;3.150;2023-06-10T00:39:58;21.00;99.90
30206;DHT22;17010;51.306;3.150;2023-06-10T00:42:25;20.90;99.90
30206;DHT22;17010;51.306;3.150;2023-06-10T00:44:51;20.90;99.90
30206;DHT22;17010;51.306;3.150;2023-06-10T00:47:18;20.90;99.90
30206;DHT22;17010;51.306;3.150;2023-06-10T00:49:45;20.90;99.90
30206;DHT22;17010;51.306;3.150;2023-06-10T00:52:11;20.90;99.90
30206;DHT22;17010;51.306;3.150;2023-06-10T00:54:38;20.90;99.90
30206;DHT22;17010;51.306;3.150;2023-06-10T00:57:05;20.90;99.90
30206;DHT22;17010;51.306;3.150;2023-06-10T00:59:31;20.90;99.90
30206;DHT22;17010;51.306;3.150;2023-06-10T01:01:58;20.90;99.90
30206;DHT22;17010;51.306;3.150;2023-06-10T01:04:24;21.00;99.90
30206;DHT22;17010;51.306;3.150;2023-06-10T01:12:40;21.10;99.90
30206;DHT22;17010;51.306;3.150;2023-06-10T01:15:08;21.10;99.90
30206;DHT22;17010;51.306;3.150;2023-06-10T01:17:59;21.20;99.90
30206;DHT22;17010;51.306;3.150;2023-06-10T01:20:29;21.20;99.90
30206;DHT22;17010;51.306;3.150;2023-06-10T01:22:57;21.20;99.90
30206;DHT22;17010;51.306;3.150;2023-06-10T01:25:27;21.30;99.90
30206;DHT22;17010;51.306;3.150;2023-06-10T01:30:56;21.30;99.90
30206;DHT22;17010;51.306;3.150;2023-06-10T01:33:28;21.30;99.90
30206;DHT22;17010;51.306;3.150;2023-06-10T01:35:55;21.30;99.90
30206;DHT22;17010;51.306;3.150;2023-06-10T01:38:22;21.20;99.90
30206;DHT22;17010;51.306;3.150;2023-06-10T01:40:51;21.30;99.90
30206;DHT22;17010;51.306;3.150;2023-06-10T01:43:19;21.30;99.90
30206;DHT22;17010;51.306;3.150;2023-06-10T01:45:45;21.30;99.90
30206;DHT22;17010;51.306;3.150;2023-06-10T01:48:11;21.30;99.90
30206;DHT22;17010;51.306;3.150;2023-06-10T01:50:38;21.30;99.90
30206;DHT22;17010;51.306;3.150;2023-06-10T01:53:04;21.30;99.90
30206;DHT22;17010;51.306;3.150;2023-06-10T01:55:31;21.30;99.90
30206;DHT22;17010;51.306;3.150;2023-06-10T01:57:57;21.20;99.90
30206;DHT22;17010;51.306;3.150;2023-06-10T02:00:23;21.20;99.90
30206;DHT22;17010;51.306;3.150;2023-06-10T02:02:49;21.20;99.90
30206;DHT22;17010;51.306;3.150;2023-06-10T02:05:16;21.20;99.90
30206;DHT22;17010;51.306;3.150;2023-06-10T02:07:42;21.30;99.90
30206;DHT22;17010;51.306;3.150;2023-06-10T02:10:10;21.30;99.90
30206;DHT22;17010;51.306;3.150;2023-06-10T02:12:36;21.30;99.90
30206;DHT22;17010;51.306;3.150;2023-06-10T02:15:02;21.30;99.90
30206;DHT22;17010;51.306;3.150;2023-06-10T02:17:29;21.20;99.90
30206;DHT22;17010;51.306;3.150;2023-06-10T02:19:56;21.20;99.90
30206;DHT22;17010;51.306;3.150;2023-06-10T02:22:23;21.10;99.90
30206;DHT22;17010;51.306;3.150;2023-06-10T02:24:49;21.10;99.90
30206;DHT22;17010;51.306;3.150;2023-06-10T02:27:16;21.00;99.90
30206;DHT22;17010;51.306;3.150;2023-06-10T02:29:43;20.90;99.90
30206;DHT22;17010;51.306;3.150;2023-06-10T02:32:10;20.90;99.90
30206;DHT22;17010;51.306;3.150;2023-06-10T02:34:36;20.80;99.90
30206;DHT22;17010;51.306;3.150;2023-06-10T02:37:02;20.70;99.90
30206;DHT22;17010;51.306;3.150;2023-06-10T02:39:29;20.60;99.90
30206;DHT22;17010;51.306;3.150;2023-06-10T02:41:55;20.50;99.90
30206;DHT22;17010;51.306;3.150;2023-06-10T02:44:23;20.40;99.90
30206;DHT22;17010;51.306;3.150;2023-06-10T02:46:49;20.30;99.90
30206;DHT22;17010;51.306;3.150;2023-06-10T02:49:15;20.20;99.90
30206;DHT22;17010;51.306;3.150;2023-06-10T02:51:44;20.20;99.90
30206;DHT22;17010;51.306;3.150;2023-06-10T02:54:10;20.00;99.90
30206;DHT22;17010;51.306;3.150;2023-06-10T02:56:37;20.00;99.90
30206;DHT22;17010;51.306;3.150;2023-06-10T02:59:03;19.90;99.90
30206;DHT22;17010;51.306;3.150;2023-06-10T03:01:29;19.80;99.90
30206;DHT22;17010;51.306;3.150;2023-06-10T03:03:58;19.70;99.90
30206;DHT22;17010;51.306;3.150;2023-06-10T03:06:25;19.70;99.90
30206;DHT22;17010;51.306;3.150;2023-06-10T03:08:52;19.60;99.90
30206;DHT22;17010;51.306;3.150;2023-06-10T03:11:19;19.60;99.90
30206;DHT22;17010;51.306;3.150;2023-06-10T03:13:45;19.60;99.90
30206;DHT22;17010;51.306;3.150;2023-06-10T03:16:11;19.60;99.90
30206;DHT22;17010;51.306;3.150;2023-06-10T03:18:38;19.50;99.90
30206;DHT22;17010;51.306;3.150;2023-06-10T03:21:04;19.40;99.90
30206;DHT22;17010;51.306;3.150;2023-06-10T03:23:30;19.40;99.90
30206;DHT22;17010;51.306;3.150;2023-06-10T03:25:56;19.40;99.90
30206;DHT22;17010;51.306;3.150;2023-06-10T03:28:23;19.30;99.90
30206;DHT22;17010;51.306;3.150;2023-06-10T03:30:49;19.20;99.90
30206;DHT22;17010;51.306;3.150;2023-06-10T03:33:17;19.20;99.90
30206;DHT22;17010;51.306;3.150;2023-06-10T03:35:43;19.10;99.90
30206;DHT22;17010;51.306;3.150;2023-06-10T03:38:09;19.10;99.90
30206;DHT22;17010;51.306;3.150;2023-06-10T03:40:36;19.10;99.90
30206;DHT22;17010;51.306;3.150;2023-06-10T03:43:03;19.10;99.90
30206;DHT22;17010;51.306;3.150;2023-06-10T03:45:30;19.10;99.90
30206;DHT22;17010;51.306;3.150;2023-06-10T03:47:56;19.10;99.90
30206;DHT22;17010;51.306;3.150;2023-06-10T03:50:23;19.10;99.90
30206;DHT22;17010;51.306;3.150;2023-06-10T03:52:50;19.00;99.90
30206;DHT22;17010;51.306;3.150;2023-06-10T03:55:17;19.00;99.90
30206;DHT22;17010;51.306;3.150;2023-06-10T03:57:44;19.00;99.90
30206;DHT22;17010;51.306;3.150;2023-06-10T04:00:10;19.00;99.90
30206;DHT22;17010;51.306;3.150;2023-06-10T04:02:38;19.10;99.90
30206;DHT22;17010;51.306;3.150;2023-06-10T04:05:12;19.10;99.90
30206;DHT22;17010;51.306;3.150;2023-06-10T04:07:38;19.10;99.90
30206;DHT22;17010;51.306;3.150;2023-06-10T04:10:09;19.10;99.90
30206;DHT22;17010;51.306;3.150;2023-06-10T04:12:37;19.10;99.90
30206;DHT22;17010;51.306;3.150;2023-06-10T04:15:04;19.10;99.90
30206;DHT22;17010;51.306;3.150;2023-06-10T04:17:32;19.10;99.90
30206;DHT22;17010;51.306;3.150;2023-06-10T04:19:58;19.20;99.90
30206;DHT22;17010;51.306;3.150;2023-06-10T04:22:25;19.20;99.90
30206;DHT22;17010;51.306;3.150;2023-06-10T04:24:51;19.30;99.90
30206;DHT22;17010;51.306;3.150;2023-06-10T04:27:17;19.30;99.90
30206;DHT22;17010;51.306;3.150;2023-06-10T04:29:44;19.30;99.90
30206;DHT22;17010;51.306;3.150;2023-06-10T04:32:11;19.40;99.90
30206;DHT22;17010;51.306;3.150;2023-06-10T04:34:37;19.50;99.90
30206;DHT22;17010;51.306;3.150;2023-06-10T04:37:06;19.50;99.90
30206;DHT22;17010;51.306;3.150;2023-06-10T04:39:33;19.50;99.90
30206;DHT22;17010;51.306;3.150;2023-06-10T04:41:59;19.60;99.90
30206;DHT22;17010;51.306;3.150;2023-06-10T04:44:26;19.70;99.90
30206;DHT22;17010;51.306;3.150;2023-06-10T04:46:52;19.70;99.90
30206;DHT22;17010;51.306;3.150;2023-06-10T04:49:18;19.70;99.90
30206;DHT22;17010;51.306;3.150;2023-06-10T04:51:44;19.80;99.90
30206;DHT22;17010;51.306;3.150;2023-06-10T04:54:11;19.80;99.90
30206;DHT22;17010;51.306;3.150;2023-06-10T04:56:37;19.90;99.90
30206;DHT22;17010;51.306;3.150;2023-06-10T04:59:03;19.90;99.90
30206;DHT22;17010;51.306;3.150;2023-06-10T05:01:29;20.00;99.90
30206;DHT22;17010;51.306;3.150;2023-06-10T05:03:55;20.00;99.90
30206;DHT22;17010;51.306;3.150;2023-06-10T05:06:22;20.10;99.90
30206;DHT22;17010;51.306;3.150;2023-06-10T05:08:48;20.20;99.90
30206;DHT22;17010;51.306;3.150;2023-06-10T05:11:14;20.20;99.90
30206;DHT22;17010;51.306;3.150;2023-06-10T05:13:41;20.30;99.90
30206;DHT22;17010;51.306;3.150;2023-06-10T05:16:08;20.40;99.90
30206;DHT22;17010;51.306;3.150;2023-06-10T05:18:35;20.40;99.90
30206;DHT22;17010;51.306;3.150;2023-06-10T05:21:03;20.50;99.90
30206;DHT22;17010;51.306;3.150;2023-06-10T05:23:29;20.60;99.90
30206;DHT22;17010;51.306;3.150;2023-06-10T05:25:55;20.70;99.90
30206;DHT22;17010;51.306;3.150;2023-06-10T05:28:23;20.90;99.90
30206;DHT22;17010;51.306;3.150;2023-06-10T05:30:49;21.20;99.90
30206;DHT22;17010;51.306;3.150;2023-06-10T05:33:15;21.50;99.90
30206;DHT22;17010;51.306;3.150;2023-06-10T05:35:42;21.90;99.90
30206;DHT22;17010;51.306;3.150;2023-06-10T05:38:08;22.20;99.90
30206;DHT22;17010;51.306;3.150;2023-06-10T05:40:34;22.50;99.90
30206;DHT22;17010;51.306;3.150;2023-06-10T05:43:00;22.90;99.90
30206;DHT22;17010;51.306;3.150;2023-06-10T05:45:27;23.10;99.90
30206;DHT22;17010;51.306;3.150;2023-06-10T05:47:54;23.30;99.90
30206;DHT22;17010;51.306;3.150;2023-06-10T05:50:21;23.60;99.90
30206;DHT22;17010;51.306;3.150;2023-06-10T05:52:47;23.80;99.90
30206;DHT22;17010;51.306;3.150;2023-06-10T05:55:14;24.00;99.90
30206;DHT22;17010;51.306;3.150;2023-06-10T05:57:41;24.10;99.90
30206;DHT22;17010;51.306;3.150;2023-06-10T06:00:09;24.20;99.90
30206;DHT22;17010;51.306;3.150;2023-06-10T06:02:36;24.50;99.90
30206;DHT22;17010;51.306;3.150;2023-06-10T06:05:02;24.50;99.90
30206;DHT22;17010;51.306;3.150;2023-06-10T06:07:29;24.70;99.90
30206;DHT22;17010;51.306;3.150;2023-06-10T06:09:56;24.80;99.90
30206;DHT22;17010;51.306;3.150;2023-06-10T06:12:22;25.00;99.90
30206;DHT22;17010;51.306;3.150;2023-06-10T06:14:48;25.10;99.90
30206;DHT22;17010;51.306;3.150;2023-06-10T06:17:15;25.30;99.90
30206;DHT22;17010;51.306;3.150;2023-06-10T06:19:41;25.50;99.90
30206;DHT22;17010;51.306;3.150;2023-06-10T06:22:07;25.70;99.90
30206;DHT22;17010;51.306;3.150;2023-06-10T06:24:34;25.90;99.90
30206;DHT22;17010;51.306;3.150;2023-06-10T06:27:01;26.20;99.90
30206;DHT22;17010;51.306;3.150;2023-06-10T06:29:27;26.40;99.90
30206;DHT22;17010;51.306;3.150;2023-06-10T06:31:55;26.70;99.90
30206;DHT22;17010;51.306;3.150;2023-06-10T06:34:21;26.90;99.90
30206;DHT22;17010;51.306;3.150;2023-06-10T06:36:48;26.90;99.90
30206;DHT22;17010;51.306;3.150;2023-06-10T06:39:15;27.00;99.90
30206;DHT22;17010;51.306;3.150;2023-06-10T06:41:42;27.10;99.90
30206;DHT22;17010;51.306;3.150;2023-06-10T06:44:08;27.10;99.90
30206;DHT22;17010;51.306;3.150;2023-06-10T06:46:34;27.20;99.90
30206;DHT22;17010;51.306;3.150;2023-06-10T06:49:01;27.40;99.90
30206;DHT22;17010;51.306;3.150;2023-06-10T06:51:27;27.50;99.90
30206;DHT22;17010;51.306;3.150;2023-06-10T06:53:53;27.50;99.90
30206;DHT22;17010;51.306;3.150;2023-06-10T06:56:23;27.70;99.90
30206;DHT22;17010;51.306;3.150;2023-06-10T06:58:49;27.90;99.90
30206;DHT22;17010;51.306;3.150;2023-06-10T07:01:15;28.10;99.90
30206;DHT22;17010;51.306;3.150;2023-06-10T07:03:42;28.20;99.90
30206;DHT22;17010;51.306;3.150;2023-06-10T07:06:09;28.30;99.90
30206;DHT22;17010;51.306;3.150;2023-06-10T07:08:35;28.30;99.90
30206;DHT22;17010;51.306;3.150;2023-06-10T07:11:01;28.40;99.90
30206;DHT22;17010;51.306;3.150;2023-06-10T07:13:28;28.50;99.90
30206;DHT22;17010;51.306;3.150;2023-06-10T07:15:54;28.60;99.90
30206;DHT22;17010;51.306;3.150;2023-06-10T07:18:20;28.60;99.90
30206;DHT22;17010;51.306;3.150;2023-06-10T07:20:46;28.80;99.90
30206;DHT22;17010;51.306;3.150;2023-06-10T07:23:12;28.90;99.90
30206;DHT22;17010;51.306;3.150;2023-06-10T07:25:40;29.20;99.90
30206;DHT22;17010;51.306;3.150;2023-06-10T07:28:07;29.40;99.90
30206;DHT22;17010;51.306;3.150;2023-06-10T07:30:33;29.60;99.90
30206;DHT22;17010;51.306;3.150;2023-06-10T07:32:59;29.90;99.90
30206;DHT22;17010;51.306;3.150;2023-06-10T07:35:27;30.20;99.90
30206;DHT22;17010;51.306;3.150;2023-06-10T07:37:53;30.40;99.90
30206;DHT22;17010;51.306;3.150;2023-06-10T07:40:20;30.40;99.90
30206;DHT22;17010;51.306;3.150;2023-06-10T07:42:46;30.70;99.90
30206;DHT22;17010;51.306;3.150;2023-06-10T07:45:13;31.00;99.90
30206;DHT22;17010;51.306;3.150;2023-06-10T07:47:39;31.10;99.90
30206;DHT22;17010;51.306;3.150;2023-06-10T07:50:06;31.10;99.90
30206;DHT22;17010;51.306;3.150;2023-06-10T07:52:32;31.10;99.90
30206;DHT22;17010;51.306;3.150;2023-06-10T07:54:58;31.10;99.90
30206;DHT22;17010;51.306;3.150;2023-06-10T07:57:25;31.20;99.90
30206;DHT22;17010;51.306;3.150;2023-06-10T07:59:51;31.50;99.90
30206;DHT22;17010;51.306;3.150;2023-06-10T08:02:17;31.60;99.90
30206;DHT22;17010;51.306;3.150;2023-06-10T08:04:44;31.70;99.90
30206;DHT22;17010;51.306;3.150;2023-06-10T08:07:13;31.70;99.90
30206;DHT22;17010;51.306;3.150;2023-06-10T08:09:39;31.70;99.90
30206;DHT22;17010;51.306;3.150;2023-06-10T08:12:06;31.90;99.90
30206;DHT22;17010;51.306;3.150;2023-06-10T08:14:33;32.20;99.90
30206;DHT22;17010;51.306;3.150;2023-06-10T08:16:59;32.60;99.90
30206;DHT22;17010;51.306;3.150;2023-06-10T08:19:25;32.80;99.90
30206;DHT22;17010;51.306;3.150;2023-06-10T08:21:52;32.80;99.90
30206;DHT22;17010;51.306;3.150;2023-06-10T08:24:19;32.90;99.90
30206;DHT22;17010;51.306;3.150;2023-06-10T08:26:45;33.00;99.90
30206;DHT22;17010;51.306;3.150;2023-06-10T08:29:12;33.30;99.90
30206;DHT22;17010;51.306;3.150;2023-06-10T08:31:43;33.30;99.90
30206;DHT22;17010;51.306;3.150;2023-06-10T08:34:09;33.40;99.90
30206;DHT22;17010;51.306;3.150;2023-06-10T08:36:35;33.70;99.90
30206;DHT22;17010;51.306;3.150;2023-06-10T08:39:02;34.00;99.90
30206;DHT22;17010;51.306;3.150;2023-06-10T08:41:30;34.40;99.90
30206;DHT22;17010;51.306;3.150;2023-06-10T08:44:24;34.40;99.90
30206;DHT22;17010;51.306;3.150;2023-06-10T08:46:53;34.60;99.90
30206;DHT22;17010;51.306;3.150;2023-06-10T08:49:21;34.90;99.90
30206;DHT22;17010;51.306;3.150;2023-06-10T08:51:55;35.00;99.90
30206;DHT22;17010;51.306;3.150;2023-06-10T08:54:27;35.10;99.90
30206;DHT22;17010;51.306;3.150;2023-06-10T08:56:55;35.30;99.90
30206;DHT22;17010;51.306;3.150;2023-06-10T08:59:23;35.50;99.90
30206;DHT22;17010;51.306;3.150;2023-06-10T09:01:51;35.70;99.90
30206;DHT22;17010;51.306;3.150;2023-06-10T09:04:19;35.80;99.90
30206;DHT22;17010;51.306;3.150;2023-06-10T09:06:46;35.60;99.90
30206;DHT22;17010;51.306;3.150;2023-06-10T09:09:14;35.60;99.90
30206;DHT22;17010;51.306;3.150;2023-06-10T09:11:42;35.50;99.90
30206;DHT22;17010;51.306;3.150;2023-06-10T09:14:08;35.50;99.90
30206;DHT22;17010;51.306;3.150;2023-06-10T09:16:34;35.30;99.90
30206;DHT22;17010;51.306;3.150;2023-06-10T09:19:01;35.50;99.90
30206;DHT22;17010;51.306;3.150;2023-06-10T09:21:34;35.60;99.90
30206;DHT22;17010;51.306;3.150;2023-06-10T09:24:01;35.00;99.90
30206;DHT22;17010;51.306;3.150;2023-06-10T09:26:28;34.50;99.90
30206;DHT22;17010;51.306;3.150;2023-06-10T09:29:05;35.10;99.90
30206;DHT22;17010;51.306;3.150;2023-06-10T09:31:35;35.30;99.90
30206;DHT22;17010;51.306;3.150;2023-06-10T09:34:11;35.70;99.90
30206;DHT22;17010;51.306;3.150;2023-06-10T09:36:39;35.80;99.90
30206;DHT22;17010;51.306;3.150;2023-06-10T09:39:16;36.00;99.90
30206;DHT22;17010;51.306;3.150;2023-06-10T09:41:44;36.00;99.90
30206;DHT22;17010;51.306;3.150;2023-06-10T09:44:17;36.00;99.90
30206;DHT22;17010;51.306;3.150;2023-06-10T09:46:46;36.00;99.90
30206;DHT22;17010;51.306;3.150;2023-06-10T09:49:14;36.10;99.90
30206;DHT22;17010;51.306;3.150;2023-06-10T09:52:04;36.20;99.90
30206;DHT22;17010;51.306;3.150;2023-06-10T09:54:32;36.20;99.90
30206;DHT22;17010;51.306;3.150;2023-06-10T09:56:58;36.40;99.90
30206;DHT22;17010;51.306;3.150;2023-06-10T09:59:29;36.20;99.90
30206;DHT22;17010;51.306;3.150;2023-06-10T10:01:58;36.30;99.90
30206;DHT22;17010;51.306;3.150;2023-06-10T10:04:26;35.70;99.90
30206;DHT22;17010;51.306;3.150;2023-06-10T10:06:52;36.10;99.90
30206;DHT22;17010;51.306;3.150;2023-06-10T10:09:19;35.80;99.90
30206;DHT22;17010;51.306;3.150;2023-06-10T10:11:45;35.50;99.90
30206;DHT22;17010;51.306;3.150;2023-06-10T10:14:11;35.80;99.90
30206;DHT22;17010;51.306;3.150;2023-06-10T10:16:41;36.10;99.90
30206;DHT22;17010;51.306;3.150;2023-06-10T10:19:11;36.00;99.90
30206;DHT22;17010;51.306;3.150;2023-06-10T10:21:44;35.70;99.90
30206;DHT22;17010;51.306;3.150;2023-06-10T10:24:22;36.20;99.90
30206;DHT22;17010;51.306;3.150;2023-06-10T10:26:50;36.20;99.90
30206;DHT22;17010;51.306;3.150;2023-06-10T10:31:56;36.40;99.90
30206;DHT22;17010;51.306;3.150;2023-06-10T10:34:48;36.70;99.90
30206;DHT22;17010;51.306;3.150;2023-06-10T10:37:17;37.00;99.90
30206;DHT22;17010;51.306;3.150;2023-06-10T10:39:45;37.00;99.50
30206;DHT22;17010;51.306;3.150;2023-06-10T10:42:12;37.00;99.20
30206;DHT22;17010;51.306;3.150;2023-06-10T10:44:38;37.00;98.00
30206;DHT22;17010;51.306;3.150;2023-06-10T10:47:39;36.60;98.70
30206;DHT22;17010;51.306;3.150;2023-06-10T10:50:46;36.30;99.00
30206;DHT22;17010;51.306;3.150;2023-06-10T10:53:26;35.90;98.50
30206;DHT22;17010;51.306;3.150;2023-06-10T10:56:15;36.40;97.30
30206;DHT22;17010;51.306;3.150;2023-06-10T10:59:07;36.70;95.10
30206;DHT22;17010;51.306;3.150;2023-06-10T11:01:43;36.80;95.80
30206;DHT22;17010;51.306;3.150;2023-06-10T11:04:17;36.90;95.50
30206;DHT22;17010;51.306;3.150;2023-06-10T11:07:05;37.30;94.60
30206;DHT22;17010;51.306;3.150;2023-06-10T11:09:33;37.20;93.40
30206;DHT22;17010;51.306;3.150;2023-06-10T11:11:59;37.40;93.90
30206;DHT22;17010;51.306;3.150;2023-06-10T11:14:29;37.30;94.00
30206;DHT22;17010;51.306;3.150;2023-06-10T11:16:59;37.30;93.00
30206;DHT22;17010;51.306;3.150;2023-06-10T11:19:34;37.50;93.50
30206;DHT22;17010;51.306;3.150;2023-06-10T11:22:06;37.80;92.60
30206;DHT22;17010;51.306;3.150;2023-06-10T11:24:32;37.40;93.30
30206;DHT22;17010;51.306;3.150;2023-06-10T11:27:36;37.10;92.70
30206;DHT22;17010;51.306;3.150;2023-06-10T11:32:40;36.70;92.70
30206;DHT22;17010;51.306;3.150;2023-06-10T11:35:19;36.80;92.90
30206;DHT22;17010;51.306;3.150;2023-06-10T11:37:48;37.10;91.70
30206;DHT22;17010;51.306;3.150;2023-06-10T11:40:16;37.20;90.80
30206;DHT22;17010;51.306;3.150;2023-06-10T11:42:45;37.40;90.50
30206;DHT22;17010;51.306;3.150;2023-06-10T11:45:15;37.30;90.50
30206;DHT22;17010;51.306;3.150;2023-06-10T11:48:00;37.90;90.20
30206;DHT22;17010;51.306;3.150;2023-06-10T11:50:48;38.00;90.70
30206;DHT22;17010;51.306;3.150;2023-06-10T11:53:14;38.20;90.00
30206;DHT22;17010;51.306;3.150;2023-06-10T11:55:48;38.10;89.30
30206;DHT22;17010;51.306;3.150;2023-06-10T12:00:46;36.30;91.20
30206;DHT22;17010;51.306;3.150;2023-06-10T12:03:13;36.60;89.90
30206;DHT22;17010;51.306;3.150;2023-06-10T12:06:01;36.70;88.40
30206;DHT22;17010;51.306;3.150;2023-06-10T12:08:27;36.70;88.40
30206;DHT22;17010;51.306;3.150;2023-06-10T12:10:54;36.70;88.00
30206;DHT22;17010;51.306;3.150;2023-06-10T12:13:21;36.70;89.20
30206;DHT22;17010;51.306;3.150;2023-06-10T12:15:52;36.60;89.20
30206;DHT22;17010;51.306;3.150;2023-06-10T12:18:25;36.70;88.20
30206;DHT22;17010;51.306;3.150;2023-06-10T12:20:51;36.40;88.30
30206;DHT22;17010;51.306;3.150;2023-06-10T12:23:18;35.50;89.80
30206;DHT22;17010;51.306;3.150;2023-06-10T12:25:55;35.60;90.70
30206;DHT22;17010;51.306;3.150;2023-06-10T12:28:27;35.70;90.60
30206;DHT22;17010;51.306;3.150;2023-06-10T12:31:24;35.90;90.60
30206;DHT22;17010;51.306;3.150;2023-06-10T12:34:07;36.40;90.20
30206;DHT22;17010;51.306;3.150;2023-06-10T12:37:04;36.80;89.00
30206;DHT22;17010;51.306;3.150;2023-06-10T12:40:13;36.90;85.20
30206;DHT22;17010;51.306;3.150;2023-06-10T12:45:43;36.00;87.20
30206;DHT22;17010;51.306;3.150;2023-06-10T12:48:17;36.30;89.50
30206;DHT22;17010;51.306;3.150;2023-06-10T12:51:00;36.60;85.80
30206;DHT22;17010;51.306;3.150;2023-06-10T12:53:27;36.30;84.80
30206;DHT22;17010;51.306;3.150;2023-06-10T12:55:55;35.50;85.30
30206;DHT22;17010;51.306;3.150;2023-06-10T12:58:23;34.90;88.70
30206;DHT22;17010;51.306;3.150;2023-06-10T13:00:50;34.90;90.40
30206;DHT22;17010;51.306;3.150;2023-06-10T13:03:30;35.10;90.80
30206;DHT22;17010;51.306;3.150;2023-06-10T13:06:06;35.00;90.70
30206;DHT22;17010;51.306;3.150;2023-06-10T13:08:32;35.20;91.00
30206;DHT22;17010;51.306;3.150;2023-06-10T13:10:59;35.20;90.40
30206;DHT22;17010;51.306;3.150;2023-06-10T13:13:25;35.50;86.00
30206;DHT22;17010;51.306;3.150;2023-06-10T13:15:51;35.20;86.30
30206;DHT22;17010;51.306;3.150;2023-06-10T13:18:18;34.80;88.00
30206;DHT22;17010;51.306;3.150;2023-06-10T13:20:44;34.80;86.30
30206;DHT22;17010;51.306;3.150;2023-06-10T13:23:11;34.10;88.90
30206;DHT22;17010;51.306;3.150;2023-06-10T13:25:37;33.70;89.60
30206;DHT22;17010;51.306;3.150;2023-06-10T13:28:03;33.50;89.60
30206;DHT22;17010;51.306;3.150;2023-06-10T13:30:30;33.70;87.40
30206;DHT22;17010;51.306;3.150;2023-06-10T13:32:56;33.80;88.60
30206;DHT22;17010;51.306;3.150;2023-06-10T13:35:25;33.60;87.70
30206;DHT22;17010;51.306;3.150;2023-06-10T13:37:52;33.40;89.90
30206;DHT22;17010;51.306;3.150;2023-06-10T13:40:18;33.30;90.00
30206;DHT22;17010;51.306;3.150;2023-06-10T13:42:45;33.20;87.90
30206;DHT22;17010;51.306;3.150;2023-06-10T13:45:17;33.20;88.30
30206;DHT22;17010;51.306;3.150;2023-06-10T13:47:43;33.30;89.40
30206;DHT22;17010;51.306;3.150;2023-06-10T13:50:10;33.20;87.80
30206;DHT22;17010;51.306;3.150;2023-06-10T13:52:37;33.10;87.70
30206;DHT22;17010;51.306;3.150;2023-06-10T13:55:03;33.10;89.50
30206;DHT22;17010;51.306;3.150;2023-06-10T13:57:30;33.10;89.10
30206;DHT22;17010;51.306;3.150;2023-06-10T13:59:57;33.20;89.30
30206;DHT22;17010;51.306;3.150;2023-06-10T14:02:23;33.20;90.10
30206;DHT22;17010;51.306;3.150;2023-06-10T14:04:49;33.30;89.30
30206;DHT22;17010;51.306;3.150;2023-06-10T14:07:15;33.20;88.90
30206;DHT22;17010;51.306;3.150;2023-06-10T14:09:42;33.00;88.80
30206;DHT22;17010;51.306;3.150;2023-06-10T14:12:10;32.90;90.40
30206;DHT22;17010;51.306;3.150;2023-06-10T14:14:37;33.00;90.40
30206;DHT22;17010;51.306;3.150;2023-06-10T14:17:03;33.20;94.40
30206;DHT22;17010;51.306;3.150;2023-06-10T14:19:30;32.70;98.10
30206;DHT22;17010;51.306;3.150;2023-06-10T14:21:57;32.50;99.00
30206;DHT22;17010;51.306;3.150;2023-06-10T14:24:24;32.10;99.50
30206;DHT22;17010;51.306;3.150;2023-06-10T14:26:50;32.00;99.90
30206;DHT22;17010;51.306;3.150;2023-06-10T14:29:16;31.90;98.60
30206;DHT22;17010;51.306;3.150;2023-06-10T14:31:44;31.40;99.90
30206;DHT22;17010;51.306;3.150;2023-06-10T14:34:10;31.00;99.90
30206;DHT22;17010;51.306;3.150;2023-06-10T14:36:37;30.30;99.90
30206;DHT22;17010;51.306;3.150;2023-06-10T14:39:04;29.70;99.90
30206;DHT22;17010;51.306;3.150;2023-06-10T14:41:30;29.30;99.90
30206;DHT22;17010;51.306;3.150;2023-06-10T14:43:56;29.10;99.90
30206;DHT22;17010;51.306;3.150;2023-06-10T14:46:22;28.90;99.90
30206;DHT22;17010;51.306;3.150;2023-06-10T14:48:49;28.70;99.90
30206;DHT22;17010;51.306;3.150;2023-06-10T14:51:16;28.60;99.90
30206;DHT22;17010;51.306;3.150;2023-06-10T14:53:42;28.50;99.90
30206;DHT22;17010;51.306;3.150;2023-06-10T14:56:08;28.30;99.90
30206;DHT22;17010;51.306;3.150;2023-06-10T14:58:35;28.20;99.90
30206;DHT22;17010;51.306;3.150;2023-06-10T15:01:01;28.20;99.90
30206;DHT22;17010;51.306;3.150;2023-06-10T15:03:27;28.20;99.90
30206;DHT22;17010;51.306;3.150;2023-06-10T15:05:53;28.10;99.90
30206;DHT22;17010;51.306;3.150;2023-06-10T15:08:20;27.90;99.90
30206;DHT22;17010;51.306;3.150;2023-06-10T15:10:46;27.90;99.90
30206;DHT22;17010;51.306;3.150;2023-06-10T15:13:14;27.90;99.90
30206;DHT22;17010;51.306;3.150;2023-06-10T15:15:40;28.00;99.90
30206;DHT22;17010;51.306;3.150;2023-06-10T15:18:06;28.20;99.90
30206;DHT22;17010;51.306;3.150;2023-06-10T15:20:32;28.30;99.90
30206;DHT22;17010;51.306;3.150;2023-06-10T15:22:58;28.40;99.90
30206;DHT22;17010;51.306;3.150;2023-06-10T15:25:24;28.20;99.90
30206;DHT22;17010;51.306;3.150;2023-06-10T15:27:51;28.30;99.90
30206;DHT22;17010;51.306;3.150;2023-06-10T15:30:18;28.30;99.90
30206;DHT22;17010;51.306;3.150;2023-06-10T15:32:44;28.30;99.90
30206;DHT22;17010;51.306;3.150;2023-06-10T15:35:10;28.20;99.90
30206;DHT22;17010;51.306;3.150;2023-06-10T15:37:38;27.90;99.90
30206;DHT22;17010;51.306;3.150;2023-06-10T15:40:04;27.90;99.90
30206;DHT22;17010;51.306;3.150;2023-06-10T15:42:31;27.80;99.90
30206;DHT22;17010;51.306;3.150;2023-06-10T15:44:58;27.70;99.90
30206;DHT22;17010;51.306;3.150;2023-06-10T15:47:24;27.60;99.90
30206;DHT22;17010;51.306;3.150;2023-06-10T15:49:50;27.60;99.90
30206;DHT22;17010;51.306;3.150;2023-06-10T15:52:16;27.40;99.90
30206;DHT22;17010;51.306;3.150;2023-06-10T15:54:42;27.10;99.90
30206;DHT22;17010;51.306;3.150;2023-06-10T15:57:10;26.90;99.90